My Meet Scores
Emma Wiedenhoeft, St. Charles Gymnastics Academy - MyMeetScores.com
Top100 | Top Teams | Upcoming Meets | Completed Meets | Latest | Add Scores | Help| Support | Bookmark and Share

Emma Wiedenhoeft, St. Charles Gymnastics Academy
Personal Bests
LevelVault BarsBeamFloorAA
38.6008.550 7.5008.02532.675
48.6009.600 9.4009.10035.725
69.5009.550 9.4009.62537.650
AllLevels7.9008.050 6.6007.67530.225
Meet Scores
Date Meet Team Session Level Division Vault Bars Beam Floor AA
2019-03-15 Illinois State Championship Level 6,9,10 St. Charles Gymnastics Academy 11 6 Jr G 9.075 10 9.550 2 9.400 5T 9.625 5 37.650 3
2019-02-15 Women's Midwest Open St. Charles Gymnastics Academy 01 6 Junior B 9.200 4T 9.300 3 8.825 9 9.575 2 36.900 3
2019-01-11 St Jude Benefit Meet St. Charles Gymnastics Academy 2B 6 Jr B 8.775 7T 9.400 3T 8.825 11 9.625 5T 36.625 7
2018-12-07 St. Nick Invite 2018 St. Charles Gymnastics Academy 2 6 JrB 8.450 11 9.425 1 9.000 10 9.425 7 36.300 6
2018-02-23 Kinetic Classic St. Charles Gymnastics Academy 9 6 Younger 9.500 4 9.000 34T 9.150 28T 9.275 40 36.925 18
2018-02-16 Big Classic St. Charles Gymnastics Academy 1A 6 Junior B 8.525 11 9.050 4 9.200 9 9.150 10T 35.925 7
2018-01-19 2018 SCEGA California Classic St. Charles Gymnastics Academy 1O 6 Child B 8.700 12T 8.875 11T 8.525 17 9.125 14 35.225 15
2018-01-12 St Jude Benefit Meet St. Charles Gymnastics Academy 4C 6 JrA 8.350 11T 9.175 6 8.675 12 9.000 13 35.200 11
2017-12-14 2017 Women's Hawaiian Pineapple Classic St. Charles Gymnastics Academy 9A 6 Ages10U 8.400 20T 9.050 8T 8.800 16T 9.425 6T 35.675 17
2017-11-17 SCGA Classic St. Charles Gymnastics Academy 3 6 JrB 9.000 10 8.900 2 7.850 12 9.250 6 35.000 11
2017-02-24 Kinetic Classic St. Charles Gymnastics Academy 5,6 4 All Ages 8.325 102 9.600 6T 9.025 78T 8.775 79 35.725 66
2017-02-10 IGI Chicago Style Gymnastics Meet St. Charles Gymnastics Academy 621L 4 JrB 8.150 16 9.350 3 9.250 6 8.775 9 35.525 6
2017-01-20 2017 Bravo Classic St. Charles Gymnastics Academy 07B 4 9yrs 8.175 15 9.350 6T 9.000 11 8.675 18 35.200 13
2017-01-13 St Jude Benefit Meet St. Charles Gymnastics Academy 3A 4 Jr C 8.450 6 8.950 5 9.400 5 8.450 9 35.250 6
2016-12-15 2016 Hawaiian Pineapple Sanction St. Charles Gymnastics Academy 9A 4 Age 9 8.600 13 8.200 13 9.200 8T 8.750 15 34.750 12
2016-12-02 Ultimate Wish Classic St. Charles Gymnastics Academy 13 4 Jr B 8.400 14 9.000 3 9.225 4 9.100 6T 35.725 3
2016-02-05 St. Valentines Classic St. Charles Gymnastics Academy 1A AllLevels All Ages 7.900 68T 8.050 50 6.600 77 7.675 74 30.225 67
2016-01-22 King Arthur Invitational St. Charles Gymnastics Academy S12 4 Jr.A 6.425 18 8.250 11 8.075 18 8.025 18 30.775 18
2016-01-08 St Jude Benefit Meet St. Charles Gymnastics Academy 4A 4 Jr A 7.600 20 8.150 15 8.400 20T 8.275 18T 32.425 21
2015-12-17 2015 Hawaiian Pineapple Classic St. Charles Gymnastics Academy 1A 4 Ages 8U 7.250 21 7.600 13T 8.050 19 7.800 21 30.700 20
2015-12-04 2015 Ultimate Wish Classic St. Charles Gymnastics Academy 7 4 All 7.950 65 7.700 69 8.100 69 7.850 79 31.600 74
2015-02-20 Midwest Open 2015 St. Charles Gymnastics Academy 3A 3 6-7 8.600 16 8.550 11 7.500 15 8.025 15 32.675 14
Get your scores on
a t-shirt, pin, or hoodie

www.lazysuits.com